createdAt,value
2023-01-27T00:01:50.464Z,142.95
2023-01-27T00:04:39.581Z,131.80
2023-01-27T00:07:28.674Z,151.73
2023-01-27T00:10:12.185Z,150.55
2023-01-27T00:13:24.667Z,135.85
2023-01-27T00:16:13.696Z,141.60
2023-01-27T00:18:55.891Z,138.65
2023-01-27T00:22:02.629Z,136.15
2023-01-27T00:24:44.864Z,145.02
2023-01-27T00:27:36.542Z,142.48
2023-01-27T00:30:25.617Z,135.48
2023-01-27T00:33:26.000Z,138.52
2023-01-27T00:36:15.614Z,144.23
2023-01-27T00:38:57.898Z,137.13
2023-01-27T00:41:47.566Z,136.73
2023-01-27T00:44:36.535Z,133.70
2023-01-27T00:47:27.613Z,138.90
2023-01-27T00:50:16.655Z,140.77
2023-01-27T00:53:06.579Z,142.75
2023-01-27T00:55:50.676Z,136.50
2023-01-27T00:58:39.999Z,140.07
2023-01-27T01:01:24.588Z,137.63
2023-01-27T01:04:13.901Z,131.32
2023-01-27T01:06:55.623Z,139.75
2023-01-27T01:09:44.627Z,142.85
2023-01-27T01:12:37.629Z,134.18
2023-01-27T01:15:19.791Z,135.98
2023-01-27T01:18:08.603Z,136.88
2023-01-27T01:20:53.689Z,143.23
2023-01-27T01:23:43.607Z,142.90
2023-01-27T01:26:25.806Z,150.57
2023-01-27T01:29:14.633Z,138.25
2023-01-27T01:31:56.776Z,143.15
2023-01-27T01:34:46.555Z,142.75
2023-01-27T01:37:28.862Z,143.63
2023-01-27T01:40:20.681Z,144.55
2023-01-27T01:43:10.898Z,153.07
2023-01-27T01:46:02.705Z,146.32
2023-01-27T01:49:04.042Z,151.02
2023-01-27T01:51:57.643Z,145.35
2023-01-27T01:54:56.112Z,133.90
2023-01-27T01:57:45.583Z,149.15
2023-01-27T02:00:28.815Z,154.80
2023-01-27T02:03:18.612Z,143.32
2023-01-27T02:06:08.882Z,147.15
2023-01-27T02:08:55.619Z,156.13
2023-01-27T02:11:44.501Z,151.40
2023-01-27T02:14:33.608Z,146.23
2023-01-27T02:17:23.613Z,158.88
2023-01-27T02:20:47.958Z,164.13
2023-01-27T02:23:58.621Z,155.43
2023-01-27T02:26:52.876Z,148.93
2023-01-27T02:29:43.596Z,147.50
2023-01-27T02:32:40.278Z,146.00
2023-01-27T02:35:33.329Z,154.85
2023-01-27T02:38:25.640Z,152.82
2023-01-27T02:41:36.425Z,172.88
2023-01-27T02:44:26.608Z,160.93
2023-01-27T02:47:08.752Z,162.10
2023-01-27T02:49:57.646Z,160.45
2023-01-27T02:52:39.750Z,169.38
2023-01-27T02:55:28.641Z,165.00
2023-01-27T02:58:17.908Z,165.98
2023-01-27T03:01:04.677Z,170.80
2023-01-27T03:03:48.173Z,177.80
2023-01-27T03:06:36.599Z,183.13
2023-01-27T03:09:24.912Z,182.57
2023-01-27T03:12:27.561Z,185.55
2023-01-27T03:15:28.994Z,180.00
2023-01-27T03:18:23.575Z,184.10
2023-01-27T03:21:08.009Z,178.80
2023-01-27T03:23:57.658Z,186.25
2023-01-27T03:26:39.674Z,163.75
2023-01-27T03:29:49.526Z,169.35
2023-01-27T03:32:34.241Z,172.48
2023-01-27T03:35:55.594Z,136.68
2023-01-27T03:39:02.362Z,147.55
2023-01-27T03:42:03.581Z,133.38
2023-01-27T03:45:11.707Z,117.47
2023-01-27T03:47:54.584Z,171.88
2023-01-27T03:50:50.568Z,126.07
2023-01-27T03:53:39.561Z,130.00
2023-01-27T03:56:29.857Z,128.32
2023-01-27T03:59:12.572Z,128.38
2023-01-27T04:02:19.173Z,121.45
2023-01-27T04:05:19.810Z,105.43
2023-01-27T04:08:07.941Z,101.63
2023-01-27T04:11:09.658Z,113.72
2023-01-27T04:13:57.915Z,102.10
2023-01-27T04:16:42.528Z,105.13
2023-01-27T04:19:25.402Z,85.85
2023-01-27T04:22:15.557Z,88.53
2023-01-27T04:25:03.918Z,85.70
2023-01-27T04:27:52.632Z,79.55
2023-01-27T04:30:41.630Z,80.72
2023-01-27T04:33:30.854Z,73.93
2023-01-27T04:36:13.523Z,73.30
2023-01-27T04:39:02.581Z,75.25
2023-01-27T04:41:46.624Z,66.25
2023-01-27T04:44:35.626Z,66.38
2023-01-27T04:47:17.916Z,67.70
2023-01-27T04:50:06.687Z,69.63
2023-01-27T04:52:49.046Z,58.17
2023-01-27T04:55:37.571Z,60.35
2023-01-27T04:58:20.918Z,60.75
2023-01-27T05:01:09.625Z,62.70
2023-01-27T05:03:52.036Z,51.33
2023-01-27T05:06:40.574Z,51.65
2023-01-27T05:09:22.961Z,58.78
2023-01-27T05:12:11.638Z,55.22
2023-01-27T05:14:53.886Z,55.88
2023-01-27T05:17:43.540Z,62.35
2023-01-27T05:20:26.054Z,48.72
2023-01-27T05:23:32.619Z,52.25
2023-01-27T05:26:35.904Z,51.15
2023-01-27T05:29:24.605Z,53.15
2023-01-27T05:32:13.571Z,56.65
2023-01-27T05:35:01.872Z,49.70
2023-01-27T05:37:44.618Z,49.20
2023-01-27T05:40:33.444Z,56.83
2023-01-27T05:43:22.617Z,51.08
2023-01-27T05:46:15.615Z,41.63
2023-01-27T05:49:07.588Z,34.27
2023-01-27T05:51:55.867Z,35.60
2023-01-27T05:54:38.575Z,36.20
2023-01-27T05:57:20.950Z,32.33
2023-01-27T06:00:09.612Z,32.38
2023-01-27T06:02:57.846Z,40.33
2023-01-27T06:05:40.523Z,37.30
2023-01-27T06:08:31.012Z,31.58
2023-01-27T06:11:13.629Z,35.20
2023-01-27T06:14:03.554Z,32.10
2023-01-27T06:16:48.344Z,36.20
2023-01-27T06:19:37.539Z,36.55
2023-01-27T06:22:26.592Z,32.42
2023-01-27T06:25:09.396Z,28.63
2023-01-27T06:27:58.604Z,27.05
2023-01-27T06:30:41.664Z,36.10
2023-01-27T06:33:30.520Z,29.92
2023-01-27T06:36:25.558Z,33.08
2023-01-27T06:39:07.900Z,36.20
2023-01-27T06:41:57.531Z,27.52
2023-01-27T06:44:39.861Z,37.42
2023-01-27T06:47:28.596Z,34.97
2023-01-27T06:50:11.309Z,37.38
2023-01-27T06:53:01.580Z,36.40
2023-01-27T06:55:52.604Z,36.58
2023-01-27T06:58:41.821Z,34.70
2023-01-27T07:01:24.577Z,37.35
2023-01-27T07:04:12.905Z,36.22
2023-01-27T07:06:54.556Z,38.15
2023-01-27T07:09:52.291Z,34.65
2023-01-27T07:12:38.751Z,37.97
2023-01-27T07:15:27.576Z,33.75
2023-01-27T07:18:09.917Z,34.00
2023-01-27T07:20:58.610Z,38.08
2023-01-27T07:23:40.830Z,37.28
2023-01-27T07:26:29.528Z,35.17
2023-01-27T07:29:17.930Z,37.13
2023-01-27T07:32:00.655Z,35.17
2023-01-27T07:34:48.822Z,37.05
2023-01-27T07:37:30.532Z,41.90
2023-01-27T07:40:14.852Z,33.83
2023-01-27T07:43:03.508Z,43.08
2023-01-27T07:45:50.060Z,34.33
2023-01-27T07:48:38.578Z,36.08
2023-01-27T07:51:27.563Z,39.15
2023-01-27T07:54:09.816Z,37.92
2023-01-27T07:56:58.605Z,36.47
2023-01-27T07:59:40.851Z,36.95
2023-01-27T08:02:33.563Z,38.33
2023-01-27T08:05:16.780Z,41.50
2023-01-27T08:08:06.552Z,37.85
2023-01-27T08:10:50.383Z,44.00
2023-01-27T08:13:39.615Z,33.83
2023-01-27T08:16:22.894Z,34.05
2023-01-27T08:19:11.618Z,40.40
2023-01-27T08:21:53.955Z,34.33
2023-01-27T08:24:51.578Z,33.33
2023-01-27T08:27:33.854Z,43.22
2023-01-27T08:30:22.579Z,32.97
2023-01-27T08:33:11.729Z,46.90
2023-01-27T08:35:59.784Z,31.80
2023-01-27T08:38:42.500Z,48.33
2023-01-27T08:41:33.513Z,37.38
2023-01-27T08:44:15.804Z,33.80
2023-01-27T08:47:04.570Z,36.75
2023-01-27T08:49:53.512Z,36.58
2023-01-27T08:52:36.006Z,40.83
2023-01-27T08:55:24.543Z,38.22
2023-01-27T08:58:13.514Z,43.63
2023-01-27T09:01:02.598Z,43.38
2023-01-27T09:03:44.923Z,39.22
2023-01-27T09:06:34.600Z,44.95
2023-01-27T09:09:17.036Z,43.63
2023-01-27T09:12:05.565Z,45.83
2023-01-27T09:14:47.900Z,46.88
2023-01-27T09:17:36.607Z,40.53
2023-01-27T09:20:25.781Z,38.60
2023-01-27T09:23:09.580Z,37.72
2023-01-27T09:25:58.977Z,45.67
2023-01-27T09:28:47.551Z,38.20
2023-01-27T09:31:30.188Z,40.53
2023-01-27T09:34:19.602Z,37.28
2023-01-27T09:37:14.615Z,42.30
2023-01-27T09:40:10.786Z,44.28
2023-01-27T09:43:46.564Z,35.72
2023-01-27T09:47:02.577Z,40.47
2023-01-27T09:50:07.996Z,34.13
2023-01-27T09:53:14.579Z,37.85
2023-01-27T09:56:17.814Z,33.65
2023-01-27T09:59:19.540Z,41.78
2023-01-27T10:02:26.542Z,37.60
2023-01-27T10:05:33.553Z,37.42
2023-01-27T10:08:34.617Z,31.45
2023-01-27T10:11:53.735Z,37.13
2023-01-27T10:15:09.851Z,34.78
2023-01-27T10:18:12.928Z,37.00
2023-01-27T10:21:25.497Z,38.92
2023-01-27T10:24:25.776Z,33.63
2023-01-27T10:27:31.580Z,34.85
2023-01-27T10:30:45.569Z,32.00
2023-01-27T10:33:56.671Z,30.15
2023-01-27T10:37:00.525Z,36.58
2023-01-27T10:40:08.532Z,32.05
2023-01-27T10:43:03.202Z,41.65
2023-01-27T10:46:18.526Z,38.22
2023-01-27T10:49:10.755Z,36.20
2023-01-27T10:52:11.562Z,35.67
2023-01-27T10:55:48.609Z,35.22
2023-01-27T10:58:48.177Z,37.58
2023-01-27T11:01:48.514Z,31.77
2023-01-27T11:04:44.143Z,44.50
2023-01-27T11:07:35.516Z,38.25
2023-01-27T11:10:20.668Z,39.97
2023-01-27T11:13:13.558Z,34.10
2023-01-27T11:16:02.535Z,38.80
2023-01-27T11:18:47.558Z,43.28
2023-01-27T11:21:39.532Z,35.45
2023-01-27T11:24:59.528Z,35.95
2023-01-27T11:28:14.572Z,35.35
2023-01-27T11:31:18.371Z,33.75
2023-01-27T11:34:18.465Z,37.05
2023-01-27T11:37:14.526Z,38.72
2023-01-27T11:39:56.807Z,34.08
2023-01-27T11:42:49.638Z,38.13
2023-01-27T11:45:44.545Z,40.75
2023-01-27T11:48:28.757Z,36.30
2023-01-27T11:51:30.570Z,36.83
2023-01-27T11:54:33.775Z,36.53
2023-01-27T11:57:31.467Z,38.80
2023-01-27T12:00:37.220Z,39.17
2023-01-27T12:03:36.452Z,37.28
2023-01-27T12:06:56.557Z,35.85
2023-01-27T12:09:45.879Z,46.17
2023-01-27T12:12:33.469Z,35.90
2023-01-27T12:15:26.512Z,40.90
2023-01-27T12:18:12.883Z,45.23
2023-01-27T12:21:09.473Z,39.03
2023-01-27T12:24:02.827Z,45.92
2023-01-27T12:26:53.519Z,47.37
2023-01-27T12:29:48.891Z,46.60
2023-01-27T12:32:46.538Z,48.53
2023-01-27T12:35:37.157Z,52.47
2023-01-27T12:38:34.492Z,48.58
2023-01-27T12:41:27.002Z,48.40
2023-01-27T12:44:36.506Z,51.30
2023-01-27T12:47:35.978Z,42.47
2023-01-27T12:50:30.524Z,44.15
2023-01-27T12:53:17.017Z,46.08
2023-01-27T12:56:35.561Z,43.00
2023-01-27T12:59:27.475Z,49.55
2023-01-27T13:02:24.846Z,52.90
2023-01-27T13:05:18.551Z,41.45
2023-01-27T13:08:02.544Z,53.67
2023-01-27T13:11:18.549Z,48.70
2023-01-27T13:14:00.957Z,51.20
2023-01-27T13:16:51.380Z,48.03
2023-01-27T13:20:01.525Z,51.78
2023-01-27T13:22:54.789Z,52.85
2023-01-27T13:25:50.538Z,55.83
2023-01-27T13:28:54.440Z,49.20
2023-01-27T13:32:01.561Z,58.78
2023-01-27T13:34:49.850Z,62.85
2023-01-27T13:37:49.485Z,60.05
2023-01-27T13:40:44.940Z,71.22
2023-01-27T13:43:45.458Z,62.83
2023-01-27T13:46:35.956Z,53.80
2023-01-27T13:49:45.496Z,67.30
2023-01-27T13:52:34.583Z,58.85
2023-01-27T13:55:17.148Z,60.42
2023-01-27T13:58:19.488Z,57.65
2023-01-27T14:01:30.873Z,74.03
2023-01-27T14:04:31.592Z,58.58
2023-01-27T14:07:31.951Z,57.67
2023-01-27T14:10:32.520Z,60.83
2023-01-27T14:13:51.918Z,62.97
2023-01-27T14:16:56.567Z,72.03
2023-01-27T14:19:51.792Z,77.63
2023-01-27T14:22:43.488Z,61.35
2023-01-27T14:25:35.529Z,54.90
2023-01-27T14:28:51.506Z,65.18
2023-01-27T14:31:54.557Z,79.88
2023-01-27T14:35:25.497Z,84.57
2023-01-27T14:38:29.027Z,62.30
2023-01-27T14:41:29.017Z,68.13
2023-01-27T14:44:33.834Z,85.35
2023-01-27T14:47:38.517Z,70.00
2023-01-27T14:50:43.106Z,78.97
2023-01-27T14:57:07.382Z,67.97
2023-01-27T15:00:20.526Z,75.22
2023-01-27T15:03:50.042Z,84.57
2023-01-27T15:06:34.528Z,75.70
2023-01-27T15:09:35.364Z,79.00
2023-01-27T15:12:42.632Z,84.50
2023-01-27T15:15:46.169Z,91.65
2023-01-27T15:21:57.774Z,86.95
2023-01-27T15:27:36.148Z,79.53
2023-01-27T15:30:48.564Z,90.32
2023-01-27T15:34:04.849Z,91.13
2023-01-27T15:36:48.512Z,93.07
2023-01-27T15:39:42.551Z,78.70
2023-01-27T15:42:29.100Z,81.13
2023-01-27T15:45:43.834Z,75.30
2023-01-27T15:48:32.985Z,85.85
2023-01-27T15:51:27.548Z,79.97
2023-01-27T15:54:17.613Z,91.45
2023-01-27T15:57:11.888Z,79.13
2023-01-27T15:59:59.422Z,73.43
2023-01-27T16:02:52.539Z,75.13
2023-01-27T16:05:45.486Z,84.07
2023-01-27T16:08:40.576Z,96.03
2023-01-27T16:11:37.974Z,88.00
2023-01-27T16:14:32.577Z,88.63
2023-01-27T16:17:24.066Z,87.07
2023-01-27T16:20:32.463Z,101.03
2023-01-27T16:23:38.833Z,87.00
2023-01-27T16:26:48.571Z,93.30
2023-01-27T16:29:52.352Z,97.75
2023-01-27T16:32:49.507Z,94.97
2023-01-27T16:35:38.506Z,88.80
2023-01-27T16:38:35.784Z,95.68
2023-01-27T16:41:43.492Z,87.78
2023-01-27T16:44:58.891Z,84.70
2023-01-27T16:47:51.538Z,95.22
2023-01-27T16:50:49.772Z,94.75
2023-01-27T16:53:33.904Z,91.03
2023-01-27T16:56:35.563Z,101.53
2023-01-27T16:59:38.516Z,116.90
2023-01-27T17:02:33.227Z,104.35
2023-01-27T17:05:23.484Z,104.00
2023-01-27T17:08:36.852Z,93.97
2023-01-27T17:11:27.588Z,104.13
2023-01-27T17:14:30.328Z,106.72
2023-01-27T17:20:22.551Z,104.38
2023-01-27T17:23:12.890Z,100.93
2023-01-27T17:25:55.552Z,120.72
2023-01-27T17:28:44.711Z,93.22
2023-01-27T17:31:33.578Z,95.90
2023-01-27T17:34:24.934Z,102.18
2023-01-27T17:37:24.464Z,104.65
2023-01-27T17:40:09.892Z,106.20
2023-01-27T17:42:58.591Z,99.57
2023-01-27T17:45:40.805Z,109.10
2023-01-27T17:48:29.482Z,108.50
2023-01-27T17:51:16.069Z,99.68
2023-01-27T17:54:06.485Z,98.25
2023-01-27T17:59:37.875Z,99.18
2023-01-27T18:02:33.037Z,93.53
2023-01-27T18:05:41.566Z,94.10
2023-01-27T18:08:24.657Z,94.97
2023-01-27T18:11:28.606Z,95.45
2023-01-27T18:14:24.948Z,90.43
2023-01-27T18:17:35.463Z,90.35
2023-01-27T18:20:42.819Z,93.78
2023-01-27T18:23:40.525Z,96.80
2023-01-27T18:26:51.129Z,93.60
2023-01-27T18:29:45.493Z,102.35
2023-01-27T18:32:37.369Z,95.25
2023-01-27T18:35:41.502Z,90.15
2023-01-27T18:38:43.533Z,93.05
2023-01-27T18:41:39.140Z,101.78
2023-01-27T18:44:22.518Z,91.28
2023-01-27T18:47:42.467Z,95.32
2023-01-27T18:50:34.730Z,87.03
2023-01-27T18:53:26.438Z,103.72
2023-01-27T18:56:15.858Z,94.68
2023-01-27T18:58:58.417Z,97.75
2023-01-27T19:01:47.789Z,90.03
2023-01-27T19:04:31.963Z,92.80
2023-01-27T19:07:24.858Z,95.65
2023-01-27T19:10:07.422Z,86.15
2023-01-27T19:12:56.814Z,90.93
2023-01-27T19:15:45.407Z,80.82
2023-01-27T19:18:52.563Z,95.22
2023-01-27T19:21:35.383Z,87.50
2023-01-27T19:24:25.513Z,91.63
2023-01-27T19:27:11.039Z,86.93
2023-01-27T19:29:59.477Z,91.53
2023-01-27T19:32:41.672Z,92.65
2023-01-27T19:35:30.419Z,91.28
2023-01-27T19:38:19.726Z,95.93
2023-01-27T19:41:02.395Z,88.78
2023-01-27T19:43:54.527Z,95.45
2023-01-27T19:46:37.863Z,94.90
2023-01-27T19:49:27.471Z,92.35
2023-01-27T19:52:11.060Z,87.05
2023-01-27T19:54:59.482Z,94.97
2023-01-27T19:57:41.932Z,96.40
2023-01-27T20:00:37.489Z,96.50
2023-01-27T20:03:19.994Z,94.18
2023-01-27T20:06:08.726Z,89.00
2023-01-27T20:08:53.101Z,85.53
2023-01-27T20:11:52.494Z,90.65
2023-01-27T20:14:34.794Z,90.10
2023-01-27T20:17:23.502Z,80.97
2023-01-27T20:20:05.721Z,88.03
2023-01-27T20:22:54.451Z,89.13
2023-01-27T20:25:36.748Z,87.95
2023-01-27T20:28:25.568Z,90.50
2023-01-27T20:31:25.433Z,89.07
2023-01-27T20:34:14.383Z,78.95
2023-01-27T20:37:04.486Z,92.45
2023-01-27T20:39:46.820Z,90.35
2023-01-27T20:42:36.387Z,93.75
2023-01-27T20:45:26.491Z,90.00
2023-01-27T20:48:08.745Z,91.57
2023-01-27T20:51:07.548Z,87.05
2023-01-27T20:53:51.819Z,93.50
2023-01-27T20:56:40.483Z,108.90
2023-01-27T20:59:22.736Z,108.15
2023-01-27T21:02:11.497Z,103.88
2023-01-27T21:04:53.681Z,106.82
2023-01-27T21:07:42.415Z,105.82
2023-01-27T21:10:26.762Z,98.32
2023-01-27T21:13:15.427Z,96.45
2023-01-27T21:16:05.422Z,109.40
2023-01-27T21:18:53.712Z,106.90
2023-01-27T21:21:38.390Z,115.43
2023-01-27T21:24:27.080Z,113.93
2023-01-27T21:27:09.506Z,126.32
2023-01-27T21:30:04.301Z,112.03
2023-01-27T21:32:53.378Z,120.88
2023-01-27T21:35:35.743Z,123.93
2023-01-27T21:38:26.453Z,123.57
2023-01-27T21:41:20.468Z,134.40
2023-01-27T21:44:21.206Z,132.48
2023-01-27T21:47:10.514Z,119.68
2023-01-27T21:50:01.914Z,126.70
2023-01-27T21:52:54.430Z,127.35
2023-01-27T21:55:36.694Z,135.63
2023-01-27T21:58:25.413Z,131.98
2023-01-27T22:01:18.543Z,137.35
2023-01-27T22:04:00.806Z,127.30
2023-01-27T22:06:49.539Z,135.23
2023-01-27T22:09:31.677Z,133.95
2023-01-27T22:12:23.387Z,127.20
2023-01-27T22:15:14.796Z,131.18
2023-01-27T22:18:03.778Z,121.80
2023-01-27T22:20:45.398Z,134.60
2023-01-27T22:23:27.522Z,135.20
2023-01-27T22:26:18.366Z,122.80
2023-01-27T22:29:01.609Z,131.55
2023-01-27T22:31:50.392Z,129.20
2023-01-27T22:34:32.769Z,128.35
2023-01-27T22:37:21.422Z,134.98
2023-01-27T22:40:03.688Z,126.05
2023-01-27T22:42:52.452Z,137.73
2023-01-27T22:45:41.503Z,137.15
2023-01-27T22:48:23.706Z,132.50
2023-01-27T22:51:13.471Z,136.13
2023-01-27T22:53:55.720Z,134.75
2023-01-27T22:56:45.449Z,143.68
2023-01-27T22:59:27.735Z,138.52
2023-01-27T23:02:16.408Z,137.73
2023-01-27T23:04:58.696Z,131.02
2023-01-27T23:07:47.419Z,138.45
2023-01-27T23:10:29.625Z,148.60
2023-01-27T23:13:19.376Z,143.93
2023-01-27T23:16:08.400Z,131.63
2023-01-27T23:18:51.947Z,143.70
2023-01-27T23:21:41.419Z,135.73
2023-01-27T23:24:30.426Z,142.38
2023-01-27T23:27:12.649Z,136.52
2023-01-27T23:30:01.390Z,151.45
2023-01-27T23:32:49.701Z,137.88
2023-01-27T23:35:32.385Z,143.98
2023-01-27T23:38:32.016Z,145.52
2023-01-27T23:41:29.364Z,150.23
2023-01-27T23:44:13.872Z,141.13
2023-01-27T23:47:02.398Z,151.57
2023-01-27T23:49:51.470Z,144.48
2023-01-27T23:52:33.662Z,136.77
2023-01-27T23:55:22.460Z,135.82
2023-01-27T23:58:04.705Z,145.52
